Elkport, Iowa
Current Conditions -  °F | °C
As of 5:55 AM on Sunday 21 Dec 2014 (Local Time) from KPDC Reporting Station
Haze Haze  
Wind Chill: 27°   Ceiling: 400
Heat Index: 33°   Visibility: 2.5mi
Dew Point: 32°   Wind: 6mph
Humidity: 96%   Direction: 120°ESE
Pressure: 30.07"   Gusts: NA
Location:  42.74°N, 91.28°W
Report Text: KPDC 211155Z AUTO 12005KT 2 1/2SM BR OVC004 01/00 A3007 RMK AO2 T00050000 10006 21001
Loading
Personal Weather Stations






























Interactive Weather Map New forecast layout! Learn more

10-Day Weather Forecast

Advertisements
Track Severe Weather on mobile